sensor_id;sensor_type;location;lat;lon;timestamp;pressure;altitude;pressure_sealevel;temperature;humidity
49044;BME280;34860;48.066;14.124;2023-11-21T00:00:43;96134.22;;;8.14;67.85
49044;BME280;34860;48.066;14.124;2023-11-21T00:03:47;96132.31;;;8.11;67.74
49044;BME280;34860;48.066;14.124;2023-11-21T00:06:56;96127.38;;;8.18;67.61
49044;BME280;34860;48.066;14.124;2023-11-21T00:10:03;96130.06;;;8.22;67.50
49044;BME280;34860;48.066;14.124;2023-11-21T00:13:07;96119.31;;;8.24;67.48
49044;BME280;34860;48.066;14.124;2023-11-21T00:16:08;96119.22;;;8.28;67.39
49044;BME280;34860;48.066;14.124;2023-11-21T00:19:10;96115.25;;;8.29;67.32
49044;BME280;34860;48.066;14.124;2023-11-21T00:22:22;96115.69;;;8.27;67.39
49044;BME280;34860;48.066;14.124;2023-11-21T00:25:24;96114.56;;;8.25;67.45
49044;BME280;34860;48.066;14.124;2023-11-21T00:28:30;96110.25;;;8.24;67.44
49044;BME280;34860;48.066;14.124;2023-11-21T00:31:34;96111.78;;;8.25;67.57
49044;BME280;34860;48.066;14.124;2023-11-21T00:34:34;96112.56;;;8.25;67.45
49044;BME280;34860;48.066;14.124;2023-11-21T00:37:39;96110.34;;;8.20;67.87
49044;BME280;34860;48.066;14.124;2023-11-21T00:40:44;96106.13;;;8.15;67.72
49044;BME280;34860;48.066;14.124;2023-11-21T00:43:46;96115.28;;;8.12;67.73
49044;BME280;34860;48.066;14.124;2023-11-21T00:46:53;96116.47;;;8.11;67.83
49044;BME280;34860;48.066;14.124;2023-11-21T00:49:56;96118.13;;;8.09;67.89
49044;BME280;34860;48.066;14.124;2023-11-21T00:53:01;96123.75;;;8.05;67.90
49044;BME280;34860;48.066;14.124;2023-11-21T00:56:05;96129.81;;;8.00;67.93
49044;BME280;34860;48.066;14.124;2023-11-21T00:59:19;96136.97;;;7.97;68.04
49044;BME280;34860;48.066;14.124;2023-11-21T01:02:23;96123.50;;;7.99;67.94
49044;BME280;34860;48.066;14.124;2023-11-21T01:05:32;96127.13;;;7.96;67.91
49044;BME280;34860;48.066;14.124;2023-11-21T01:08:37;96125.66;;;7.92;67.84
49044;BME280;34860;48.066;14.124;2023-11-21T01:11:37;96118.75;;;7.84;68.04
49044;BME280;34860;48.066;14.124;2023-11-21T01:14:40;96118.91;;;7.76;68.19
49044;BME280;34860;48.066;14.124;2023-11-21T01:17:41;96117.09;;;7.70;68.28
49044;BME280;34860;48.066;14.124;2023-11-21T01:20:45;96112.44;;;7.67;68.28
49044;BME280;34860;48.066;14.124;2023-11-21T01:23:51;96118.56;;;7.58;68.36
49044;BME280;34860;48.066;14.124;2023-11-21T01:26:54;96109.28;;;7.48;68.53
49044;BME280;34860;48.066;14.124;2023-11-21T01:29:55;96107.47;;;7.41;68.70
49044;BME280;34860;48.066;14.124;2023-11-21T01:32:59;96111.09;;;7.38;68.64
49044;BME280;34860;48.066;14.124;2023-11-21T01:36:04;96111.53;;;7.37;68.49
49044;BME280;34860;48.066;14.124;2023-11-21T01:39:09;96108.22;;;7.25;68.55
49044;BME280;34860;48.066;14.124;2023-11-21T01:42:16;96124.97;;;7.18;68.85
49044;BME280;34860;48.066;14.124;2023-11-21T01:45:19;96117.16;;;7.13;68.82
49044;BME280;34860;48.066;14.124;2023-11-21T01:48:29;96108.53;;;7.11;68.74
49044;BME280;34860;48.066;14.124;2023-11-21T01:51:31;96107.00;;;7.10;68.68
49044;BME280;34860;48.066;14.124;2023-11-21T01:54:35;96107.00;;;7.10;68.75
49044;BME280;34860;48.066;14.124;2023-11-21T01:57:33;96104.22;;;7.10;68.63
49044;BME280;34860;48.066;14.124;2023-11-21T02:00:37;96111.22;;;7.15;68.50
49044;BME280;34860;48.066;14.124;2023-11-21T02:03:36;96105.97;;;7.20;68.22
49044;BME280;34860;48.066;14.124;2023-11-21T02:06:35;96113.75;;;7.25;68.13
49044;BME280;34860;48.066;14.124;2023-11-21T02:09:41;96110.56;;;7.27;68.10
49044;BME280;34860;48.066;14.124;2023-11-21T02:12:48;96107.44;;;7.25;68.22
49044;BME280;34860;48.066;14.124;2023-11-21T02:15:48;96116.19;;;7.23;68.30
49044;BME280;34860;48.066;14.124;2023-11-21T02:18:52;96103.91;;;7.24;68.34
49044;BME280;34860;48.066;14.124;2023-11-21T02:21:54;96112.91;;;7.28;68.14
49044;BME280;34860;48.066;14.124;2023-11-21T02:24:57;96104.88;;;7.34;68.19
49044;BME280;34860;48.066;14.124;2023-11-21T02:27:57;96103.59;;;7.39;68.01
49044;BME280;34860;48.066;14.124;2023-11-21T02:30:59;96116.09;;;7.43;67.91
49044;BME280;34860;48.066;14.124;2023-11-21T02:34:01;96115.09;;;7.37;67.83
49044;BME280;34860;48.066;14.124;2023-11-21T02:36:59;96113.50;;;7.20;68.44
49044;BME280;34860;48.066;14.124;2023-11-21T02:40:08;96111.31;;;7.11;68.68
49044;BME280;34860;48.066;14.124;2023-11-21T02:43:16;96112.34;;;7.17;68.62
49044;BME280;34860;48.066;14.124;2023-11-21T02:46:19;96107.59;;;7.18;68.44
49044;BME280;34860;48.066;14.124;2023-11-21T02:49:20;96101.38;;;7.14;68.68
49044;BME280;34860;48.066;14.124;2023-11-21T02:52:25;96099.91;;;7.09;68.60
49044;BME280;34860;48.066;14.124;2023-11-21T02:55:27;96095.16;;;7.09;68.67
49044;BME280;34860;48.066;14.124;2023-11-21T02:58:44;96109.34;;;7.12;68.51
49044;BME280;34860;48.066;14.124;2023-11-21T03:01:52;96105.78;;;7.11;68.55
49044;BME280;34860;48.066;14.124;2023-11-21T03:04:53;96115.19;;;7.14;68.62
49044;BME280;34860;48.066;14.124;2023-11-21T03:07:54;96106.91;;;7.14;68.44
49044;BME280;34860;48.066;14.124;2023-11-21T03:10:59;96113.56;;;7.16;68.49
49044;BME280;34860;48.066;14.124;2023-11-21T03:14:02;96112.28;;;7.21;68.39
49044;BME280;34860;48.066;14.124;2023-11-21T03:17:06;96102.34;;;7.23;68.42
49044;BME280;34860;48.066;14.124;2023-11-21T03:20:09;96098.41;;;7.24;68.50
49044;BME280;34860;48.066;14.124;2023-11-21T03:23:18;96093.56;;;7.28;68.30
49044;BME280;34860;48.066;14.124;2023-11-21T03:26:24;96088.34;;;7.31;68.40
49044;BME280;34860;48.066;14.124;2023-11-21T03:29:26;96084.69;;;7.37;68.31
49044;BME280;34860;48.066;14.124;2023-11-21T03:32:39;96081.13;;;7.37;68.21
49044;BME280;34860;48.066;14.124;2023-11-21T03:35:48;96078.44;;;7.33;68.44
49044;BME280;34860;48.066;14.124;2023-11-21T03:38:53;96081.22;;;7.33;68.54
49044;BME280;34860;48.066;14.124;2023-11-21T03:42:07;96078.78;;;7.35;68.67
49044;BME280;34860;48.066;14.124;2023-11-21T03:45:13;96076.53;;;7.30;68.75
49044;BME280;34860;48.066;14.124;2023-11-21T03:48:20;96070.59;;;7.32;68.81
49044;BME280;34860;48.066;14.124;2023-11-21T03:51:24;96078.00;;;7.35;68.77
49044;BME280;34860;48.066;14.124;2023-11-21T03:54:29;96075.75;;;7.30;68.85
49044;BME280;34860;48.066;14.124;2023-11-21T03:57:34;96080.44;;;7.33;69.07
49044;BME280;34860;48.066;14.124;2023-11-21T04:00:48;96069.00;;;7.31;68.92
49044;BME280;34860;48.066;14.124;2023-11-21T04:03:53;96070.75;;;7.24;69.19
49044;BME280;34860;48.066;14.124;2023-11-21T04:06:58;96080.66;;;7.22;69.16
49044;BME280;34860;48.066;14.124;2023-11-21T04:10:01;96078.69;;;7.22;69.19
49044;BME280;34860;48.066;14.124;2023-11-21T04:13:14;96079.91;;;7.21;68.91
49044;BME280;34860;48.066;14.124;2023-11-21T04:16:17;96076.00;;;7.19;68.98
49044;BME280;34860;48.066;14.124;2023-11-21T04:19:24;96082.03;;;7.14;69.11
49044;BME280;34860;48.066;14.124;2023-11-21T04:22:38;96077.09;;;7.05;69.36
49044;BME280;34860;48.066;14.124;2023-11-21T04:25:44;96077.25;;;6.98;69.33
49044;BME280;34860;48.066;14.124;2023-11-21T04:28:50;96078.03;;;6.98;69.38
49044;BME280;34860;48.066;14.124;2023-11-21T04:31:54;96082.69;;;7.01;69.21
49044;BME280;34860;48.066;14.124;2023-11-21T04:34:57;96081.75;;;7.08;69.10
49044;BME280;34860;48.066;14.124;2023-11-21T04:38:01;96087.56;;;7.14;68.92
49044;BME280;34860;48.066;14.124;2023-11-21T04:41:05;96086.84;;;7.09;69.08
49044;BME280;34860;48.066;14.124;2023-11-21T04:44:12;96081.41;;;7.06;69.21
49044;BME280;34860;48.066;14.124;2023-11-21T04:47:22;96084.59;;;7.04;69.34
49044;BME280;34860;48.066;14.124;2023-11-21T04:50:27;96087.50;;;6.97;69.61
49044;BME280;34860;48.066;14.124;2023-11-21T04:53:30;96085.69;;;6.90;69.72
49044;BME280;34860;48.066;14.124;2023-11-21T04:56:33;96087.81;;;6.83;69.94
49044;BME280;34860;48.066;14.124;2023-11-21T04:59:37;96087.03;;;6.82;69.77
49044;BME280;34860;48.066;14.124;2023-11-21T05:02:37;96093.78;;;6.81;69.84
49044;BME280;34860;48.066;14.124;2023-11-21T05:05:26;96089.03;;;6.82;69.78
49044;BME280;34860;48.066;14.124;2023-11-21T05:08:16;96093.72;;;6.85;69.54
49044;BME280;34860;48.066;14.124;2023-11-21T05:11:07;96090.66;;;6.79;69.65
49044;BME280;34860;48.066;14.124;2023-11-21T05:13:58;96093.06;;;6.77;69.78
49044;BME280;34860;48.066;14.124;2023-11-21T05:16:49;96101.00;;;6.75;69.79
49044;BME280;34860;48.066;14.124;2023-11-21T05:19:39;96093.91;;;6.74;69.93
49044;BME280;34860;48.066;14.124;2023-11-21T05:22:28;96104.75;;;6.85;69.68
49044;BME280;34860;48.066;14.124;2023-11-21T05:25:16;96096.97;;;6.80;69.71
49044;BME280;34860;48.066;14.124;2023-11-21T05:28:06;96097.66;;;6.84;69.69
49044;BME280;34860;48.066;14.124;2023-11-21T05:30:54;96100.34;;;6.87;69.71
49044;BME280;34860;48.066;14.124;2023-11-21T05:33:50;96095.19;;;6.89;69.60
49044;BME280;34860;48.066;14.124;2023-11-21T05:36:40;96103.75;;;6.95;69.47
49044;BME280;34860;48.066;14.124;2023-11-21T05:39:28;96097.22;;;7.05;69.38
49044;BME280;34860;48.066;14.124;2023-11-21T05:42:19;96104.84;;;7.18;69.00
49044;BME280;34860;48.066;14.124;2023-11-21T05:45:08;96100.09;;;7.18;69.08
49044;BME280;34860;48.066;14.124;2023-11-21T05:47:58;96103.13;;;7.24;69.05
49044;BME280;34860;48.066;14.124;2023-11-21T05:50:49;96110.22;;;7.25;69.01
49044;BME280;34860;48.066;14.124;2023-11-21T05:53:37;96120.13;;;7.22;69.21
49044;BME280;34860;48.066;14.124;2023-11-21T05:56:26;96118.66;;;7.18;69.32
49044;BME280;34860;48.066;14.124;2023-11-21T05:59:15;96125.22;;;7.24;69.27
49044;BME280;34860;48.066;14.124;2023-11-21T06:02:05;96118.66;;;7.18;69.47
49044;BME280;34860;48.066;14.124;2023-11-21T06:04:54;96126.59;;;7.16;69.57
49044;BME280;34860;48.066;14.124;2023-11-21T06:07:45;96119.25;;;7.09;69.79
49044;BME280;34860;48.066;14.124;2023-11-21T06:10:35;96120.53;;;7.04;69.97
49044;BME280;34860;48.066;14.124;2023-11-21T06:13:23;96120.53;;;7.04;70.13
49044;BME280;34860;48.066;14.124;2023-11-21T06:16:12;96120.19;;;7.02;70.21
49044;BME280;34860;48.066;14.124;2023-11-21T06:19:03;96124.91;;;7.02;70.27
49044;BME280;34860;48.066;14.124;2023-11-21T06:21:52;96129.25;;;7.03;70.39
49044;BME280;34860;48.066;14.124;2023-11-21T06:24:43;96122.56;;;7.00;70.53
49044;BME280;34860;48.066;14.124;2023-11-21T06:27:34;96125.06;;;6.95;70.49
49044;BME280;34860;48.066;14.124;2023-11-21T06:30:23;96134.63;;;6.90;70.44
49044;BME280;34860;48.066;14.124;2023-11-21T06:33:13;96142.91;;;6.90;70.56
49044;BME280;34860;48.066;14.124;2023-11-21T06:36:03;96149.28;;;6.87;70.67
49044;BME280;34860;48.066;14.124;2023-11-21T06:38:53;96144.69;;;6.80;70.60
49044;BME280;34860;48.066;14.124;2023-11-21T06:41:44;96156.16;;;6.79;70.55
49044;BME280;34860;48.066;14.124;2023-11-21T06:44:32;96156.94;;;6.79;70.70
49044;BME280;34860;48.066;14.124;2023-11-21T06:47:23;96157.78;;;6.76;70.79
49044;BME280;34860;48.066;14.124;2023-11-21T06:50:12;96160.06;;;6.81;70.62
49044;BME280;34860;48.066;14.124;2023-11-21T06:53:01;96160.47;;;7.00;70.13
49044;BME280;34860;48.066;14.124;2023-11-21T06:55:54;96159.41;;;7.14;69.60
49044;BME280;34860;48.066;14.124;2023-11-21T06:58:45;96150.50;;;7.06;69.88
49044;BME280;34860;48.066;14.124;2023-11-21T07:01:34;96167.69;;;7.14;69.73
49044;BME280;34860;48.066;14.124;2023-11-21T07:04:26;96154.81;;;7.07;69.98
49044;BME280;34860;48.066;14.124;2023-11-21T07:07:15;96168.47;;;7.14;69.82
49044;BME280;34860;48.066;14.124;2023-11-21T07:10:05;96162.44;;;7.19;69.66
49044;BME280;34860;48.066;14.124;2023-11-21T07:12:54;96167.75;;;7.30;69.46
49044;BME280;34860;48.066;14.124;2023-11-21T07:15:46;96169.66;;;7.33;69.15
49044;BME280;34860;48.066;14.124;2023-11-21T07:18:36;96176.75;;;7.34;69.37
49044;BME280;34860;48.066;14.124;2023-11-21T07:21:26;96179.25;;;7.45;69.02
49044;BME280;34860;48.066;14.124;2023-11-21T07:24:15;96179.56;;;7.51;68.84
49044;BME280;34860;48.066;14.124;2023-11-21T07:27:03;96179.13;;;7.52;68.82
49044;BME280;34860;48.066;14.124;2023-11-21T07:29:52;96187.34;;;7.56;68.62
49044;BME280;34860;48.066;14.124;2023-11-21T07:32:42;96193.25;;;7.58;68.78
49044;BME280;34860;48.066;14.124;2023-11-21T07:35:32;96189.59;;;7.61;68.67
49044;BME280;34860;48.066;14.124;2023-11-21T07:38:26;96195.63;;;7.56;68.96
49044;BME280;34860;48.066;14.124;2023-11-21T07:41:16;96192.25;;;7.48;69.30
49044;BME280;34860;48.066;14.124;2023-11-21T07:44:08;96195.16;;;7.41;69.66
49044;BME280;34860;48.066;14.124;2023-11-21T07:46:58;96197.09;;;7.44;69.83
49044;BME280;34860;48.066;14.124;2023-11-21T07:49:47;96191.56;;;7.44;70.03
49044;BME280;34860;48.066;14.124;2023-11-21T07:52:36;96189.22;;;7.42;70.09
49044;BME280;34860;48.066;14.124;2023-11-21T07:55:25;96196.53;;;7.33;70.49
49044;BME280;34860;48.066;14.124;2023-11-21T07:58:14;96192.78;;;7.23;70.79
49044;BME280;34860;48.066;14.124;2023-11-21T08:01:04;96188.97;;;7.17;70.87
49044;BME280;34860;48.066;14.124;2023-11-21T08:03:52;96199.22;;;7.16;71.02
49044;BME280;34860;48.066;14.124;2023-11-21T08:06:45;96196.25;;;7.27;70.77
49044;BME280;34860;48.066;14.124;2023-11-21T08:09:33;96187.38;;;7.36;70.59
49044;BME280;34860;48.066;14.124;2023-11-21T08:12:22;96182.53;;;7.40;70.62
49044;BME280;34860;48.066;14.124;2023-11-21T08:15:11;96188.69;;;7.48;70.69
49044;BME280;34860;48.066;14.124;2023-11-21T08:18:01;96184.22;;;7.54;70.42
49044;BME280;34860;48.066;14.124;2023-11-21T08:20:49;96182.72;;;7.69;70.46
49044;BME280;34860;48.066;14.124;2023-11-21T08:23:40;96184.09;;;7.77;70.69
49044;BME280;34860;48.066;14.124;2023-11-21T08:26:30;96185.72;;;7.75;70.84
49044;BME280;34860;48.066;14.124;2023-11-21T08:29:20;96189.88;;;7.83;70.88
49044;BME280;34860;48.066;14.124;2023-11-21T08:32:11;96189.72;;;7.90;70.62
49044;BME280;34860;48.066;14.124;2023-11-21T08:35:00;96184.97;;;7.91;70.94
49044;BME280;34860;48.066;14.124;2023-11-21T08:37:51;96190.94;;;7.89;71.14
49044;BME280;34860;48.066;14.124;2023-11-21T08:40:41;96187.75;;;7.91;71.29
49044;BME280;34860;48.066;14.124;2023-11-21T08:43:31;96187.16;;;7.99;71.21
49044;BME280;34860;48.066;14.124;2023-11-21T08:46:21;96191.72;;;8.06;71.07
49044;BME280;34860;48.066;14.124;2023-11-21T08:49:10;96187.25;;;8.12;70.88
49044;BME280;34860;48.066;14.124;2023-11-21T08:52:02;96189.22;;;8.28;70.77
49044;BME280;34860;48.066;14.124;2023-11-21T08:54:52;96196.66;;;8.31;70.98
49044;BME280;34860;48.066;14.124;2023-11-21T08:57:45;96197.19;;;8.43;70.91
49044;BME280;34860;48.066;14.124;2023-11-21T09:00:34;96201.16;;;8.58;70.53
49044;BME280;34860;48.066;14.124;2023-11-21T09:03:23;96196.31;;;8.62;70.60
49044;BME280;34860;48.066;14.124;2023-11-21T09:06:12;96186.69;;;8.67;70.77
49044;BME280;34860;48.066;14.124;2023-11-21T09:09:02;96191.69;;;8.72;70.48
49044;BME280;34860;48.066;14.124;2023-11-21T09:11:51;96189.34;;;8.70;70.55
49044;BME280;34860;48.066;14.124;2023-11-21T09:14:42;96188.66;;;8.83;70.50
49044;BME280;34860;48.066;14.124;2023-11-21T09:17:31;96188.84;;;9.05;70.17
49044;BME280;34860;48.066;14.124;2023-11-21T09:20:21;96189.47;;;8.96;70.19
49044;BME280;34860;48.066;14.124;2023-11-21T09:23:10;96190.38;;;8.77;70.67
49044;BME280;34860;48.066;14.124;2023-11-21T09:25:59;96194.66;;;8.65;71.03
49044;BME280;34860;48.066;14.124;2023-11-21T09:28:48;96199.59;;;8.57;71.24
49044;BME280;34860;48.066;14.124;2023-11-21T09:31:38;96204.44;;;8.53;71.17
49044;BME280;34860;48.066;14.124;2023-11-21T09:34:26;96208.94;;;8.47;71.26
49044;BME280;34860;48.066;14.124;2023-11-21T09:37:15;96206.63;;;8.45;71.17
49044;BME280;34860;48.066;14.124;2023-11-21T09:40:05;96209.66;;;8.34;71.00
49044;BME280;34860;48.066;14.124;2023-11-21T09:42:59;96209.28;;;8.32;71.43
49044;BME280;34860;48.066;14.124;2023-11-21T09:45:58;96202.19;;;8.31;71.40
49044;BME280;34860;48.066;14.124;2023-11-21T09:48:51;96205.47;;;8.26;71.43
49044;BME280;34860;48.066;14.124;2023-11-21T09:51:42;96195.69;;;8.22;71.41
49044;BME280;34860;48.066;14.124;2023-11-21T09:54:32;96198.47;;;8.22;71.38
49044;BME280;34860;48.066;14.124;2023-11-21T09:57:23;96203.66;;;8.19;71.31
49044;BME280;34860;48.066;14.124;2023-11-21T10:00:13;96203.75;;;8.16;71.50
49044;BME280;34860;48.066;14.124;2023-11-21T10:03:05;96200.66;;;8.14;71.42
49044;BME280;34860;48.066;14.124;2023-11-21T10:05:56;96188.44;;;8.11;71.49
49044;BME280;34860;48.066;14.124;2023-11-21T10:08:48;96186.88;;;8.10;71.51
49044;BME280;34860;48.066;14.124;2023-11-21T10:11:40;96200.72;;;8.10;71.46
49044;BME280;34860;48.066;14.124;2023-11-21T10:14:30;96190.06;;;8.09;71.43
49044;BME280;34860;48.066;14.124;2023-11-21T10:17:19;96189.50;;;8.01;71.53
49044;BME280;34860;48.066;14.124;2023-11-21T10:20:10;96182.06;;;7.98;71.63
49044;BME280;34860;48.066;14.124;2023-11-21T10:23:02;96184.44;;;7.96;71.63
49044;BME280;34860;48.066;14.124;2023-11-21T10:25:52;96194.75;;;7.95;71.44
49044;BME280;34860;48.066;14.124;2023-11-21T10:28:55;96191.63;;;7.93;71.68
49044;BME280;34860;48.066;14.124;2023-11-21T10:31:44;96191.97;;;7.95;71.48
49044;BME280;34860;48.066;14.124;2023-11-21T10:34:33;96190.25;;;8.02;71.63
49044;BME280;34860;48.066;14.124;2023-11-21T10:37:22;96192.06;;;8.08;71.26
49044;BME280;34860;48.066;14.124;2023-11-21T10:40:13;96191.47;;;8.17;71.18
49044;BME280;34860;48.066;14.124;2023-11-21T10:43:06;96193.81;;;8.18;71.26
49044;BME280;34860;48.066;14.124;2023-11-21T10:45:57;96189.72;;;8.23;71.22
49044;BME280;34860;48.066;14.124;2023-11-21T10:48:52;96195.88;;;8.31;71.08
49044;BME280;34860;48.066;14.124;2023-11-21T10:51:43;96195.88;;;8.31;71.06
49044;BME280;34860;48.066;14.124;2023-11-21T10:54:32;96195.53;;;8.29;71.23
49044;BME280;34860;48.066;14.124;2023-11-21T10:57:24;96186.47;;;8.28;71.33
49044;BME280;34860;48.066;14.124;2023-11-21T11:00:15;96192.44;;;8.27;71.47
49044;BME280;34860;48.066;14.124;2023-11-21T11:03:35;96196.56;;;8.35;71.33
49044;BME280;34860;48.066;14.124;2023-11-21T11:06:25;96195.44;;;8.32;71.25
49044;BME280;34860;48.066;14.124;2023-11-21T11:09:14;96192.50;;;8.23;71.48
49044;BME280;34860;48.066;14.124;2023-11-21T11:12:04;96193.69;;;8.06;71.85
49044;BME280;34860;48.066;14.124;2023-11-21T11:14:55;96198.56;;;7.85;72.31
49044;BME280;34860;48.066;14.124;2023-11-21T11:17:45;96193.78;;;7.69;72.74
49044;BME280;34860;48.066;14.124;2023-11-21T11:20:36;96196.69;;;7.62;72.97
49044;BME280;34860;48.066;14.124;2023-11-21T11:23:54;96187.09;;;7.50;73.16
49044;BME280;34860;48.066;14.124;2023-11-21T11:26:56;96189.13;;;7.46;73.42
49044;BME280;34860;48.066;14.124;2023-11-21T11:29:56;96197.34;;;7.50;73.18
49044;BME280;34860;48.066;14.124;2023-11-21T11:32:55;96186.66;;;7.52;72.96
49044;BME280;34860;48.066;14.124;2023-11-21T11:35:53;96193.81;;;7.49;72.99
49044;BME280;34860;48.066;14.124;2023-11-21T11:38:46;96205.38;;;7.44;73.01
49044;BME280;34860;48.066;14.124;2023-11-21T11:41:37;96196.97;;;7.31;73.13
49044;BME280;34860;48.066;14.124;2023-11-21T11:44:46;96193.91;;;7.25;73.35
49044;BME280;34860;48.066;14.124;2023-11-21T11:47:39;96191.50;;;7.27;73.11
49044;BME280;34860;48.066;14.124;2023-11-21T11:50:31;96191.50;;;7.27;73.17
49044;BME280;34860;48.066;14.124;2023-11-21T11:53:21;96188.38;;;7.25;73.22
49044;BME280;34860;48.066;14.124;2023-11-21T11:56:23;96195.47;;;7.26;73.21
49044;BME280;34860;48.066;14.124;2023-11-21T11:59:13;96198.75;;;7.21;73.13
49044;BME280;34860;48.066;14.124;2023-11-21T12:02:04;96206.75;;;7.16;73.53
49044;BME280;34860;48.066;14.124;2023-11-21T12:04:57;96195.97;;;7.01;73.59
49044;BME280;34860;48.066;14.124;2023-11-21T12:07:47;96197.75;;;6.91;73.93
49044;BME280;34860;48.066;14.124;2023-11-21T12:10:38;96199.84;;;6.84;73.90
49044;BME280;34860;48.066;14.124;2023-11-21T12:13:28;96195.19;;;6.81;74.15
49044;BME280;34860;48.066;14.124;2023-11-21T12:16:17;96190.00;;;6.83;73.97
49044;BME280;34860;48.066;14.124;2023-11-21T12:19:08;96188.31;;;6.89;73.66
49044;BME280;34860;48.066;14.124;2023-11-21T12:22:00;96195.63;;;6.99;73.70
49044;BME280;34860;48.066;14.124;2023-11-21T12:24:49;96195.34;;;7.14;73.11
49044;BME280;34860;48.066;14.124;2023-11-21T12:27:37;96183.78;;;7.19;72.93
49044;BME280;34860;48.066;14.124;2023-11-21T12:30:28;96185.59;;;7.25;72.73
49044;BME280;34860;48.066;14.124;2023-11-21T12:33:18;96190.72;;;7.27;72.78
49044;BME280;34860;48.066;14.124;2023-11-21T12:36:07;96186.75;;;7.28;72.87
49044;BME280;34860;48.066;14.124;2023-11-21T12:38:59;96190.63;;;7.31;72.91
49044;BME280;34860;48.066;14.124;2023-11-21T12:41:49;96192.53;;;7.34;72.74
49044;BME280;34860;48.066;14.124;2023-11-21T12:44:39;96188.59;;;7.35;72.57
49044;BME280;34860;48.066;14.124;2023-11-21T12:47:29;96186.16;;;7.37;72.59
49044;BME280;34860;48.066;14.124;2023-11-21T12:50:19;96187.38;;;7.36;72.73
49044;BME280;34860;48.066;14.124;2023-11-21T12:53:11;96190.91;;;7.36;72.83
49044;BME280;34860;48.066;14.124;2023-11-21T12:56:07;96177.53;;;7.35;72.95
49044;BME280;34860;48.066;14.124;2023-11-21T12:58:56;96177.94;;;7.33;72.94
49044;BME280;34860;48.066;14.124;2023-11-21T13:01:46;96184.53;;;7.39;72.83
49044;BME280;34860;48.066;14.124;2023-11-21T13:04:38;96179.69;;;7.43;72.77
49044;BME280;34860;48.066;14.124;2023-11-21T13:07:27;96183.94;;;7.48;72.76
49044;BME280;34860;48.066;14.124;2023-11-21T13:10:16;96192.25;;;7.48;72.61
49044;BME280;34860;48.066;14.124;2023-11-21T13:13:07;96187.25;;;7.59;72.68
49044;BME280;34860;48.066;14.124;2023-11-21T13:15:59;96185.63;;;7.62;72.52
49044;BME280;34860;48.066;14.124;2023-11-21T13:18:51;96188.47;;;7.58;72.73
49044;BME280;34860;48.066;14.124;2023-11-21T13:21:41;96184.47;;;7.59;72.74
49044;BME280;34860;48.066;14.124;2023-11-21T13:24:29;96190.09;;;7.56;72.66
49044;BME280;34860;48.066;14.124;2023-11-21T13:27:19;96187.34;;;7.56;72.84
49044;BME280;34860;48.066;14.124;2023-11-21T13:30:10;96192.34;;;7.61;72.79
49044;BME280;34860;48.066;14.124;2023-11-21T13:33:03;96195.91;;;7.61;72.75
49044;BME280;34860;48.066;14.124;2023-11-21T13:35:54;96190.72;;;7.63;72.59
49044;BME280;34860;48.066;14.124;2023-11-21T13:38:43;96199.44;;;7.62;72.93
49044;BME280;34860;48.066;14.124;2023-11-21T13:41:33;96204.22;;;7.61;73.03
49044;BME280;34860;48.066;14.124;2023-11-21T13:44:22;96207.41;;;7.60;72.75
49044;BME280;34860;48.066;14.124;2023-11-21T13:47:23;96199.09;;;7.60;72.94
49044;BME280;34860;48.066;14.124;2023-11-21T13:50:17;96204.22;;;7.61;72.97
49044;BME280;34860;48.066;14.124;2023-11-21T13:53:11;96202.66;;;7.60;73.15
49044;BME280;34860;48.066;14.124;2023-11-21T13:56:09;96209.75;;;7.61;73.19
49044;BME280;34860;48.066;14.124;2023-11-21T13:58:58;96205.31;;;7.64;73.15
49044;BME280;34860;48.066;14.124;2023-11-21T14:01:57;96210.84;;;7.64;73.34
49044;BME280;34860;48.066;14.124;2023-11-21T14:04:49;96212.09;;;7.63;73.30
49044;BME280;34860;48.066;14.124;2023-11-21T14:07:46;96218.38;;;7.63;73.21
49044;BME280;34860;48.066;14.124;2023-11-21T14:10:35;96221.06;;;7.67;73.45
49044;BME280;34860;48.066;14.124;2023-11-21T14:13:30;96228.94;;;7.69;73.59
49044;BME280;34860;48.066;14.124;2023-11-21T14:16:20;96224.19;;;7.69;73.40
49044;BME280;34860;48.066;14.124;2023-11-21T14:19:09;96230.94;;;7.68;73.53
49044;BME280;34860;48.066;14.124;2023-11-21T14:22:04;96237.59;;;7.71;73.62
49044;BME280;34860;48.066;14.124;2023-11-21T14:24:55;96237.59;;;7.71;73.70
49044;BME280;34860;48.066;14.124;2023-11-21T14:27:46;96243.13;;;7.71;73.94
49044;BME280;34860;48.066;14.124;2023-11-21T14:30:35;96232.84;;;7.71;73.84
49044;BME280;34860;48.066;14.124;2023-11-21T14:33:25;96237.59;;;7.71;73.90
49044;BME280;34860;48.066;14.124;2023-11-21T14:36:15;96244.00;;;7.68;73.91
49044;BME280;34860;48.066;14.124;2023-11-21T14:39:06;96238.47;;;7.68;74.02
49044;BME280;34860;48.066;14.124;2023-11-21T14:42:01;96249.16;;;7.66;74.06
49044;BME280;34860;48.066;14.124;2023-11-21T14:44:49;96243.28;;;7.63;74.11
49044;BME280;34860;48.066;14.124;2023-11-21T14:47:39;96250.09;;;7.59;74.10
49044;BME280;34860;48.066;14.124;2023-11-21T14:50:33;96243.50;;;7.53;74.29
49044;BME280;34860;48.066;14.124;2023-11-21T14:53:57;96247.91;;;7.50;73.97
49044;BME280;34860;48.066;14.124;2023-11-21T14:56:52;96249.09;;;7.49;74.10
49044;BME280;34860;48.066;14.124;2023-11-21T14:59:43;96256.97;;;7.51;73.89
49044;BME280;34860;48.066;14.124;2023-11-21T15:02:34;96255.41;;;7.50;73.88
49044;BME280;34860;48.066;14.124;2023-11-21T15:05:36;96256.25;;;7.46;73.84
49044;BME280;34860;48.066;14.124;2023-11-21T15:08:25;96256.25;;;7.46;73.72
49044;BME280;34860;48.066;14.124;2023-11-21T15:11:19;96258.69;;;7.44;73.60
49044;BME280;34860;48.066;14.124;2023-11-21T15:14:12;96259.59;;;7.38;73.94
49044;BME280;34860;48.066;14.124;2023-11-21T15:17:07;96262.44;;;7.34;73.91
49044;BME280;34860;48.066;14.124;2023-11-21T15:19:56;96273.84;;;7.36;73.87
49044;BME280;34860;48.066;14.124;2023-11-21T15:22:47;96265.97;;;7.35;73.75
49044;BME280;34860;48.066;14.124;2023-11-21T15:25:36;96276.69;;;7.33;74.03
49044;BME280;34860;48.066;14.124;2023-11-21T15:28:25;96268.44;;;7.29;74.14